createdAt,value
2017-04-28T00:02:26.186Z,66.00
2017-04-28T00:04:54.476Z,65.30
2017-04-28T00:07:22.962Z,65.70
2017-04-28T00:09:51.250Z,65.50
2017-04-28T00:12:19.542Z,65.50
2017-04-28T00:14:47.881Z,65.70
2017-04-28T00:17:16.178Z,65.70
2017-04-28T00:19:44.474Z,65.50
2017-04-28T00:22:13.565Z,66.50
2017-04-28T00:24:41.854Z,66.70
2017-04-28T00:27:10.142Z,66.70
2017-04-28T00:29:38.478Z,66.70
2017-04-28T00:32:06.765Z,65.90
2017-04-28T00:34:35.058Z,66.40
2017-04-28T00:37:04.150Z,66.20
2017-04-28T00:39:32.474Z,67.70
2017-04-28T00:42:00.773Z,68.20
2017-04-28T00:44:29.122Z,69.50
2017-04-28T00:46:58.169Z,70.00
2017-04-28T00:49:26.480Z,70.10
2017-04-28T00:51:55.568Z,70.40
2017-04-28T00:54:23.877Z,70.40
2017-04-28T00:56:52.188Z,70.40
2017-04-28T00:59:20.652Z,70.60
2017-04-28T01:01:49.122Z,70.00
2017-04-28T01:04:17.473Z,69.60
2017-04-28T01:06:46.445Z,69.80
2017-04-28T01:09:15.492Z,69.70
2017-04-28T01:11:43.795Z,69.30
2017-04-28T01:14:12.960Z,68.50
2017-04-28T01:16:42.008Z,68.40
2017-04-28T01:19:10.313Z,68.80
2017-04-28T01:21:39.412Z,69.60
2017-04-28T01:24:07.716Z,70.30
2017-04-28T01:26:36.028Z,71.20
2017-04-28T01:29:04.399Z,71.10
2017-04-28T01:31:32.717Z,71.00
2017-04-28T01:34:01.043Z,71.10
2017-04-28T01:36:29.401Z,71.00
2017-04-28T01:38:57.711Z,71.00
2017-04-28T01:41:26.012Z,71.00
2017-04-28T01:43:54.364Z,70.60
2017-04-28T01:46:22.672Z,70.50
2017-04-28T01:48:50.977Z,70.50
2017-04-28T01:51:20.063Z,70.10
2017-04-28T01:53:48.385Z,69.40
2017-04-28T01:56:16.693Z,68.90
2017-04-28T01:58:45.128Z,68.80
2017-04-28T02:01:13.433Z,68.90
2017-04-28T02:03:41.736Z,69.30
2017-04-28T02:06:10.081Z,68.90
2017-04-28T02:08:38.389Z,69.40
2017-04-28T02:11:05.925Z,69.30
2017-04-28T02:13:34.286Z,70.80
2017-04-28T02:16:02.649Z,69.90
2017-04-28T02:18:31.712Z,69.60
2017-04-28T02:21:00.066Z,68.60
2017-04-28T02:23:28.376Z,68.40
2017-04-28T02:25:57.421Z,68.20
2017-04-28T02:28:25.802Z,67.90
2017-04-28T02:30:54.281Z,67.80
2017-04-28T02:33:23.329Z,68.00
2017-04-28T02:35:51.969Z,68.10
2017-04-28T02:38:20.285Z,68.20
2017-04-28T02:40:49.457Z,68.50
2017-04-28T02:43:17.824Z,68.30
2017-04-28T02:45:46.136Z,68.20
2017-04-28T02:48:14.444Z,68.00
2017-04-28T02:50:42.792Z,67.70
2017-04-28T02:53:11.100Z,67.70
2017-04-28T02:55:39.408Z,68.20
2017-04-28T02:58:07.760Z,68.40
2017-04-28T03:00:36.069Z,68.40
2017-04-28T03:03:05.130Z,68.80
2017-04-28T03:05:33.486Z,69.50
2017-04-28T03:08:01.884Z,69.60
2017-04-28T03:10:30.251Z,69.60
2017-04-28T03:12:59.348Z,69.10
2017-04-28T03:15:27.656Z,69.10
2017-04-28T03:17:55.965Z,69.10
2017-04-28T03:20:24.314Z,69.30
2017-04-28T03:22:53.365Z,68.70
2017-04-28T03:25:21.669Z,68.50
2017-04-28T03:27:53.889Z,68.30
2017-04-28T03:30:22.204Z,68.10
2017-04-28T03:32:50.652Z,68.10
2017-04-28T03:35:19.025Z,68.90
2017-04-28T03:37:47.337Z,68.20
2017-04-28T03:40:15.652Z,69.00
2017-04-28T03:42:44.096Z,69.40
2017-04-28T03:45:12.404Z,70.00
2017-04-28T03:47:40.713Z,70.70
2017-04-28T03:50:10.006Z,70.80
2017-04-28T03:52:38.313Z,70.80
2017-04-28T03:55:06.624Z,70.80
2017-04-28T03:57:35.741Z,71.10
2017-04-28T04:00:04.064Z,71.20
2017-04-28T04:02:33.143Z,71.20
2017-04-28T04:05:02.264Z,71.50
2017-04-28T04:07:30.593Z,71.60
2017-04-28T04:10:00.360Z,71.60
2017-04-28T04:12:28.889Z,71.60
2017-04-28T04:14:57.202Z,71.60
2017-04-28T04:17:25.512Z,71.20
2017-04-28T04:19:54.909Z,71.20
2017-04-28T04:22:23.328Z,71.30
2017-04-28T04:24:52.372Z,71.50
2017-04-28T04:27:20.724Z,71.50
2017-04-28T04:29:49.137Z,71.40
2017-04-28T04:32:18.190Z,71.20
2017-04-28T04:34:46.552Z,71.00
2017-04-28T04:37:14.856Z,70.80
2017-04-28T04:39:43.168Z,71.20
2017-04-28T04:42:11.560Z,71.60
2017-04-28T04:44:40.740Z,71.90
2017-04-28T04:47:09.824Z,71.50
2017-04-28T04:49:39.005Z,71.70
2017-04-28T04:52:08.089Z,71.90
2017-04-28T04:54:36.392Z,71.80
2017-04-28T04:57:04.750Z,72.00
2017-04-28T04:59:33.061Z,71.60
2017-04-28T05:02:02.116Z,72.00
2017-04-28T05:04:30.480Z,72.60
2017-04-28T05:06:58.858Z,73.40
2017-04-28T05:09:27.164Z,73.20
2017-04-28T05:11:55.516Z,73.70
2017-04-28T05:14:23.829Z,74.40
2017-04-28T05:16:52.228Z,73.20
2017-04-28T05:19:21.322Z,73.00
2017-04-28T05:21:49.792Z,72.00
2017-04-28T05:24:18.104Z,72.40
2017-04-28T05:26:46.452Z,71.80
2017-04-28T05:29:14.864Z,71.30
2017-04-28T05:31:43.909Z,71.50
2017-04-28T05:34:12.360Z,71.90
2017-04-28T05:36:40.772Z,71.60
2017-04-28T05:39:09.821Z,72.10
2017-04-28T05:41:38.176Z,71.10
2017-04-28T05:44:06.489Z,71.90
2017-04-28T05:46:35.563Z,71.40
2017-04-28T05:49:04.685Z,71.20
2017-04-28T05:51:33.005Z,71.20
2017-04-28T05:54:01.334Z,70.40
2017-04-28T05:56:29.734Z,70.10
2017-04-28T05:58:58.789Z,71.30
2017-04-28T06:01:27.092Z,71.30
2017-04-28T06:03:55.446Z,70.30
2017-04-28T06:06:23.752Z,71.00
2017-04-28T06:08:52.165Z,71.10
2017-04-28T06:11:21.261Z,70.90
2017-04-28T06:13:49.576Z,70.50
2017-04-28T06:16:17.904Z,70.40
2017-04-28T06:18:46.274Z,72.00
2017-04-28T06:21:14.587Z,70.00
2017-04-28T06:23:43.641Z,70.00
2017-04-28T06:26:11.992Z,70.00
2017-04-28T06:31:34.468Z,68.60
2017-04-28T06:34:02.785Z,67.40
2017-04-28T06:36:31.105Z,66.40
2017-04-28T06:38:59.469Z,66.30
2017-04-28T06:41:27.781Z,67.40
2017-04-28T06:43:56.097Z,66.60
2017-04-28T06:46:24.453Z,65.30
2017-04-28T06:48:52.801Z,65.90
2017-04-28T06:51:21.853Z,65.90
2017-04-28T06:53:50.583Z,66.60
2017-04-28T06:56:18.900Z,66.10
2017-04-28T06:58:47.961Z,65.50
2017-04-28T07:01:17.077Z,65.50
2017-04-28T07:03:45.392Z,66.10
2017-04-28T07:06:13.700Z,66.50
2017-04-28T07:08:42.885Z,66.70
2017-04-28T07:11:11.205Z,66.00
2017-04-28T07:13:40.512Z,66.80
2017-04-28T07:16:09.617Z,65.50
2017-04-28T07:18:37.928Z,65.80
2017-04-28T07:21:06.240Z,65.10
2017-04-28T07:23:34.605Z,66.40
2017-04-28T07:26:02.957Z,66.60
2017-04-28T07:28:32.014Z,64.40
2017-04-28T07:31:00.425Z,64.90
2017-04-28T07:33:28.737Z,64.20
2017-04-28T07:35:57.048Z,64.60
2017-04-28T07:38:25.400Z,64.40
2017-04-28T07:40:53.712Z,65.70
2017-04-28T07:43:22.030Z,64.30
2017-04-28T07:45:50.393Z,64.30
2017-04-28T07:48:18.701Z,63.20
2017-04-28T07:50:47.008Z,64.70
2017-04-28T07:53:16.099Z,64.50
2017-04-28T07:55:44.400Z,63.60
2017-04-28T07:58:12.712Z,63.80
2017-04-28T08:00:41.884Z,64.00
2017-04-28T08:03:10.964Z,63.20
2017-04-28T08:05:40.051Z,62.30
2017-04-28T08:08:09.144Z,63.20
2017-04-28T08:10:37.452Z,63.80
2017-04-28T08:13:05.762Z,63.60
2017-04-28T08:15:34.156Z,63.40
2017-04-28T08:18:02.584Z,62.70
2017-04-28T08:20:31.640Z,62.70
2017-04-28T08:23:00.008Z,62.50
2017-04-28T08:25:29.584Z,63.50
2017-04-28T08:27:57.900Z,63.50
2017-04-28T08:30:26.257Z,61.90
2017-04-28T08:32:54.568Z,64.10
2017-04-28T08:35:22.876Z,62.40
2017-04-28T08:37:51.968Z,62.10
2017-04-28T08:40:20.282Z,60.60
2017-04-28T08:42:48.601Z,61.00
2017-04-28T08:45:17.337Z,62.60
2017-04-28T08:47:45.644Z,60.50
2017-04-28T08:50:13.953Z,60.00
2017-04-28T08:52:42.329Z,60.70
2017-04-28T08:55:11.381Z,60.80
2017-04-28T08:57:39.697Z,60.10
2017-04-28T09:00:08.149Z,61.20
2017-04-28T09:02:36.463Z,62.50
2017-04-28T09:05:04.773Z,62.70
2017-04-28T09:07:33.401Z,62.60
2017-04-28T09:10:01.719Z,59.40
2017-04-28T09:12:30.717Z,58.30
2017-04-28T09:14:59.112Z,58.90
2017-04-28T09:17:27.424Z,59.20
2017-04-28T09:19:55.740Z,59.40
2017-04-28T09:22:24.124Z,58.70
2017-04-28T09:24:53.204Z,59.50
2017-04-28T09:27:22.285Z,58.70
2017-04-28T09:29:51.669Z,60.80
2017-04-28T09:32:20.724Z,59.70
2017-04-28T09:34:49.036Z,57.50
2017-04-28T09:37:18.637Z,57.90
2017-04-28T09:39:47.689Z,59.10
2017-04-28T09:42:16.077Z,59.40
2017-04-28T09:44:45.173Z,58.80
2017-04-28T09:47:13.485Z,58.70
2017-04-28T09:49:41.797Z,59.10
2017-04-28T09:52:10.152Z,58.80
2017-04-28T09:54:38.465Z,57.30
2017-04-28T09:57:06.872Z,57.40
2017-04-28T09:59:35.976Z,58.30
2017-04-28T10:02:04.289Z,57.80
2017-04-28T10:04:32.677Z,58.50
2017-04-28T10:07:01.785Z,58.60
2017-04-28T10:09:30.104Z,58.50
2017-04-28T10:11:58.416Z,58.20
2017-04-28T10:14:26.782Z,58.50
2017-04-28T10:16:55.093Z,59.80
2017-04-28T10:19:23.405Z,58.30
2017-04-28T10:21:51.765Z,58.40
2017-04-28T10:24:20.080Z,58.90
2017-04-28T10:26:48.399Z,58.00
2017-04-28T10:29:16.921Z,59.00
2017-04-28T10:31:45.972Z,59.20
2017-04-28T10:34:14.280Z,58.60
2017-04-28T10:36:42.640Z,59.40
2017-04-28T10:39:10.956Z,58.60
2017-04-28T10:41:39.261Z,59.70
2017-04-28T10:44:08.226Z,58.50
2017-04-28T10:46:37.590Z,59.40
2017-04-28T10:49:05.908Z,60.00
2017-04-28T10:51:34.285Z,59.40
2017-04-28T10:54:02.612Z,60.60
2017-04-28T10:56:30.952Z,59.00
2017-04-28T10:58:59.314Z,59.10
2017-04-28T11:01:27.629Z,59.50
2017-04-28T11:03:55.945Z,59.20
2017-04-28T11:06:25.049Z,59.00
2017-04-28T11:08:53.361Z,58.20
2017-04-28T11:11:21.673Z,59.20
2017-04-28T11:13:50.038Z,57.50
2017-04-28T11:16:18.391Z,57.40
2017-04-28T11:18:47.464Z,57.80
2017-04-28T11:21:16.640Z,57.00
2017-04-28T11:23:45.697Z,57.70
2017-04-28T11:26:14.008Z,59.60
2017-04-28T11:28:42.373Z,60.70
2017-04-28T11:31:10.685Z,59.50
2017-04-28T11:33:38.998Z,58.40
2017-04-28T11:36:07.744Z,58.60
2017-04-28T11:38:36.824Z,58.70
2017-04-28T11:41:05.908Z,58.00
2017-04-28T11:43:35.017Z,56.40
2017-04-28T11:46:03.341Z,58.10
2017-04-28T11:48:32.411Z,56.50
2017-04-28T11:51:00.797Z,53.90
2017-04-28T11:53:29.876Z,54.10
2017-04-28T11:55:58.936Z,53.50
2017-04-28T11:58:27.304Z,51.90
2017-04-28T12:00:55.612Z,53.90
2017-04-28T12:03:23.921Z,53.60
2017-04-28T12:05:52.284Z,54.20
2017-04-28T12:08:20.596Z,53.90
2017-04-28T12:10:48.935Z,53.50
2017-04-28T12:13:17.320Z,52.50
2017-04-28T12:15:45.629Z,52.00
2017-04-28T12:18:13.936Z,53.00
2017-04-28T12:20:42.488Z,49.80
2017-04-28T12:23:11.540Z,49.00
2017-04-28T12:25:39.848Z,48.20
2017-04-28T12:28:08.501Z,48.50
2017-04-28T12:30:36.812Z,45.70
2017-04-28T12:33:05.145Z,46.70
2017-04-28T12:35:33.692Z,47.00
2017-04-28T12:38:02.006Z,45.60
2017-04-28T12:40:30.336Z,46.60
2017-04-28T12:42:58.872Z,47.40
2017-04-28T12:45:27.244Z,48.10
2017-04-28T12:47:56.293Z,46.90
2017-04-28T12:50:24.649Z,47.90
2017-04-28T12:52:53.052Z,46.80
2017-04-28T12:55:21.364Z,47.70
2017-04-28T12:57:49.724Z,48.10
2017-04-28T13:00:18.034Z,47.90
2017-04-28T13:02:47.084Z,48.30
2017-04-28T13:05:15.436Z,49.10
2017-04-28T13:07:43.737Z,48.20
2017-04-28T13:10:12.044Z,47.20
2017-04-28T13:12:40.677Z,47.30
2017-04-28T13:15:09.720Z,46.60
2017-04-28T13:17:38.032Z,47.80
2017-04-28T13:20:06.384Z,48.90
2017-04-28T13:22:35.445Z,49.00
2017-04-28T13:25:03.765Z,48.40
2017-04-28T13:27:32.133Z,48.80
2017-04-28T13:30:00.461Z,49.90
2017-04-28T13:32:28.769Z,48.80
2017-04-28T13:34:57.409Z,50.10
2017-04-28T13:37:25.725Z,48.30
2017-04-28T13:39:54.032Z,49.90
2017-04-28T13:42:22.397Z,48.60
2017-04-28T13:44:50.709Z,50.30
2017-04-28T13:47:19.027Z,49.60
2017-04-28T13:49:47.387Z,49.70
2017-04-28T13:52:15.820Z,48.10
2017-04-28T13:54:44.876Z,49.10
2017-04-28T13:57:13.230Z,47.90
2017-04-28T13:59:41.536Z,48.60
2017-04-28T14:02:09.845Z,51.40
2017-04-28T14:04:38.212Z,52.80
2017-04-28T14:07:06.533Z,54.40
2017-04-28T14:09:34.848Z,55.50
2017-04-28T14:12:03.222Z,56.20
2017-04-28T14:14:31.540Z,57.00
2017-04-28T14:16:59.874Z,58.10
2017-04-28T14:19:28.376Z,58.60
2017-04-28T14:21:56.692Z,59.20
2017-04-28T14:24:25.746Z,59.80
2017-04-28T14:26:54.104Z,60.90
2017-04-28T14:29:22.418Z,61.00
2017-04-28T14:31:50.737Z,60.70
2017-04-28T14:34:19.122Z,60.40
2017-04-28T14:36:48.168Z,60.60
2017-04-28T14:39:16.484Z,60.90
2017-04-28T14:41:45.125Z,60.40
2017-04-28T14:44:13.432Z,60.50
2017-04-28T14:46:41.856Z,60.60
2017-04-28T14:49:11.344Z,62.00
2017-04-28T14:51:40.397Z,61.50
2017-04-28T14:54:08.713Z,61.80
2017-04-28T14:56:37.081Z,62.60
2017-04-28T14:59:05.401Z,62.50
2017-04-28T15:01:34.466Z,62.20
2017-04-28T15:04:02.832Z,61.70
2017-04-28T15:06:31.155Z,59.80
2017-04-28T15:08:59.477Z,59.70
2017-04-28T15:11:27.837Z,59.80
2017-04-28T15:13:56.148Z,60.00
2017-04-28T15:16:24.466Z,59.10
2017-04-28T15:18:53.850Z,57.70
2017-04-28T15:21:22.911Z,57.00
2017-04-28T15:23:51.224Z,57.10
2017-04-28T15:26:19.580Z,58.40
2017-04-28T15:28:47.894Z,58.20
2017-04-28T15:31:16.208Z,58.70
2017-04-28T15:33:44.568Z,58.50
2017-04-28T15:36:12.880Z,57.70
2017-04-28T15:38:41.188Z,56.00
2017-04-28T15:41:09.885Z,56.60
2017-04-28T15:43:38.201Z,55.70
2017-04-28T15:46:06.530Z,56.00
2017-04-28T15:48:35.446Z,56.50
2017-04-28T15:51:03.780Z,57.30
2017-04-28T15:53:32.121Z,58.00
2017-04-28T15:56:00.494Z,59.30
2017-04-28T15:58:28.049Z,59.30
2017-04-28T16:00:56.365Z,59.80
2017-04-28T16:03:24.732Z,60.30
2017-04-28T16:05:53.049Z,60.90
2017-04-28T16:08:22.109Z,58.70
2017-04-28T16:10:50.461Z,59.40
2017-04-28T16:13:18.770Z,59.70
2017-04-28T16:15:47.816Z,58.30
2017-04-28T16:18:16.168Z,58.00
2017-04-28T16:20:44.477Z,57.60
2017-04-28T16:23:13.520Z,57.80
2017-04-28T16:25:41.870Z,58.20
2017-04-28T16:28:10.185Z,56.50
2017-04-28T16:30:38.491Z,58.00
2017-04-28T16:33:06.956Z,58.20
2017-04-28T16:35:35.268Z,57.60
2017-04-28T16:38:03.581Z,56.90
2017-04-28T16:40:32.081Z,57.00
2017-04-28T16:43:00.400Z,57.30
2017-04-28T16:45:28.708Z,56.50
2017-04-28T16:47:58.101Z,57.80
2017-04-28T16:50:27.148Z,57.60
2017-04-28T16:52:55.456Z,57.70
2017-04-28T16:55:24.552Z,55.60
2017-04-28T16:57:52.857Z,56.50
2017-04-28T17:00:21.156Z,56.60
2017-04-28T17:02:50.249Z,56.60
2017-04-28T17:05:18.566Z,55.30
2017-04-28T17:07:46.875Z,54.70
2017-04-28T17:10:15.236Z,55.40
2017-04-28T17:12:43.549Z,56.30
2017-04-28T17:15:11.860Z,56.50
2017-04-28T17:17:40.229Z,57.50
2017-04-28T17:20:08.537Z,57.30
2017-04-28T17:22:36.852Z,55.10
2017-04-28T17:25:05.579Z,55.20
2017-04-28T17:27:33.909Z,56.30
2017-04-28T17:30:02.232Z,55.10
2017-04-28T17:32:30.608Z,56.30
2017-04-28T17:34:58.917Z,55.80
2017-04-28T17:37:27.229Z,55.60
2017-04-28T17:39:55.580Z,55.70
2017-04-28T17:42:24.629Z,56.10
2017-04-28T17:44:52.936Z,56.20
2017-04-28T17:47:21.484Z,55.80
2017-04-28T17:49:50.528Z,55.60
2017-04-28T17:52:18.832Z,55.30
2017-04-28T17:54:48.212Z,55.60
2017-04-28T17:57:17.265Z,55.60
2017-04-28T17:59:45.576Z,56.40
2017-04-28T18:02:13.933Z,55.80
2017-04-28T18:04:42.236Z,56.50
2017-04-28T18:07:10.540Z,56.40
2017-04-28T18:09:38.901Z,56.80
2017-04-28T18:12:08.270Z,57.10
2017-04-28T18:14:36.591Z,57.60
2017-04-28T18:17:04.997Z,57.60
2017-04-28T18:19:33.322Z,58.20
2017-04-28T18:22:01.641Z,58.00
2017-04-28T18:24:30.748Z,57.80
2017-04-28T18:26:59.084Z,58.30
2017-04-28T18:29:28.134Z,58.40
2017-04-28T18:31:56.641Z,58.80
2017-04-28T18:34:25.689Z,58.40
2017-04-28T18:36:54.004Z,58.60
2017-04-28T18:39:22.361Z,58.60
2017-04-28T18:41:50.665Z,59.00
2017-04-28T18:44:18.973Z,59.00
2017-04-28T18:46:47.343Z,58.90
2017-04-28T18:49:15.652Z,59.00
2017-04-28T18:51:43.956Z,59.50
2017-04-28T18:54:13.341Z,59.30
2017-04-28T18:56:42.385Z,59.30
2017-04-28T18:59:10.692Z,58.90
2017-04-28T19:01:39.060Z,58.60
2017-04-28T19:04:07.372Z,58.40
2017-04-28T19:06:35.682Z,58.60
2017-04-28T19:09:04.125Z,58.70
2017-04-28T19:11:33.214Z,57.90
2017-04-28T19:14:02.273Z,58.50
2017-04-28T19:16:30.960Z,58.80
2017-04-28T19:19:00.017Z,58.70
2017-04-28T19:21:28.333Z,59.20
2017-04-28T19:23:56.780Z,59.60
2017-04-28T19:26:25.093Z,60.00
2017-04-28T19:28:53.393Z,60.10
2017-04-28T19:31:22.485Z,60.50
2017-04-28T19:33:50.831Z,60.60
2017-04-28T19:36:19.884Z,60.40
2017-04-28T19:38:48.245Z,60.70
2017-04-28T19:41:16.552Z,60.60
2017-04-28T19:43:44.864Z,60.90
2017-04-28T19:46:13.217Z,61.00
2017-04-28T19:48:41.523Z,60.40
2017-04-28T19:51:10.567Z,60.60
2017-04-28T19:53:38.933Z,60.10
2017-04-28T19:56:07.241Z,60.10
2017-04-28T19:58:35.592Z,60.50
2017-04-28T20:01:04.689Z,60.60
2017-04-28T20:03:33.009Z,61.00
2017-04-28T20:06:01.313Z,61.80
2017-04-28T20:08:29.695Z,62.50
2017-04-28T20:10:58.004Z,61.90
2017-04-28T20:13:26.304Z,61.60
2017-04-28T20:15:54.652Z,62.20
2017-04-28T20:18:22.953Z,62.40
2017-04-28T20:20:51.256Z,63.00
2017-04-28T20:23:19.641Z,63.10
2017-04-28T20:25:48.696Z,63.70
2017-04-28T20:28:17.001Z,63.40
2017-04-28T20:30:45.361Z,63.20
2017-04-28T20:33:13.668Z,63.80
2017-04-28T20:35:41.976Z,63.70
2017-04-28T20:38:11.066Z,64.30
2017-04-28T20:40:39.376Z,64.00
2017-04-28T20:43:07.681Z,63.90
2017-04-28T20:45:36.436Z,63.90
2017-04-28T20:48:05.491Z,64.30
2017-04-28T20:50:33.800Z,65.00
2017-04-28T20:53:02.163Z,65.10
2017-04-28T20:55:30.477Z,64.80
2017-04-28T20:57:59.162Z,64.90
2017-04-28T21:00:27.952Z,64.90
2017-04-28T21:02:56.997Z,64.90
2017-04-28T21:05:25.301Z,65.00
2017-04-28T21:07:54.396Z,65.50
2017-04-28T21:10:22.707Z,65.70
2017-04-28T21:12:51.013Z,65.60
2017-04-28T21:15:19.787Z,65.60
2017-04-28T21:17:48.106Z,65.40
2017-04-28T21:20:16.458Z,66.00
2017-04-28T21:22:44.801Z,66.70
2017-04-28T21:25:13.097Z,67.30
2017-04-28T21:27:41.397Z,67.20
2017-04-28T21:30:10.048Z,67.20
2017-04-28T21:32:39.092Z,67.30
2017-04-28T21:35:07.392Z,67.40
2017-04-28T21:37:36.484Z,67.40
2017-04-28T21:40:04.811Z,67.60
2017-04-28T21:42:33.129Z,67.80
2017-04-28T21:45:01.670Z,67.70
2017-04-28T21:47:30.732Z,68.30
2017-04-28T21:49:59.781Z,68.20
2017-04-28T21:52:28.129Z,68.20
2017-04-28T21:54:56.425Z,68.20
2017-04-28T21:57:24.728Z,68.60
2017-04-28T21:59:53.373Z,69.00
2017-04-28T22:02:22.416Z,68.60
2017-04-28T22:04:50.717Z,68.50
2017-04-28T22:07:20.085Z,68.80
2017-04-28T22:09:48.405Z,69.10
2017-04-28T22:12:16.709Z,69.20
2017-04-28T22:14:45.503Z,69.10
2017-04-28T22:17:25.928Z,69.10
2017-04-28T22:19:54.284Z,68.90
2017-04-28T22:22:22.585Z,69.30
2017-04-28T22:24:50.893Z,69.10
2017-04-28T22:27:19.260Z,68.90
2017-04-28T22:29:47.573Z,69.00
2017-04-28T22:32:15.885Z,69.50
2017-04-28T22:34:44.598Z,69.40
2017-04-28T22:37:13.640Z,69.80
2017-04-28T22:39:41.944Z,69.50
2017-04-28T22:42:10.336Z,69.80
2017-04-28T22:44:38.636Z,70.20
2017-04-28T22:47:06.944Z,70.20
2017-04-28T22:49:35.298Z,70.60
2017-04-28T22:52:03.618Z,70.40
2017-04-28T22:54:31.937Z,70.70
2017-04-28T22:57:00.584Z,70.30
2017-04-28T22:59:29.666Z,70.30
2017-04-28T23:01:57.976Z,70.10
2017-04-28T23:04:26.342Z,70.10
2017-04-28T23:06:54.644Z,70.00
2017-04-28T23:09:23.689Z,70.20
2017-04-28T23:11:52.048Z,70.30
2017-04-28T23:14:20.356Z,70.20
2017-04-28T23:16:49.405Z,70.00
2017-04-28T23:19:17.765Z,70.10
2017-04-28T23:21:46.076Z,70.00
2017-04-28T23:24:14.384Z,70.20
2017-04-28T23:26:42.735Z,70.40
2017-04-28T23:29:11.045Z,70.90
2017-04-28T23:31:39.352Z,71.40
2017-04-28T23:34:07.723Z,71.50
2017-04-28T23:36:36.029Z,71.70
2017-04-28T23:39:05.086Z,71.70
2017-04-28T23:41:33.628Z,71.40
2017-04-28T23:44:01.949Z,71.70
2017-04-28T23:46:30.264Z,71.40
2017-04-28T23:48:58.918Z,71.00
2017-04-28T23:51:27.236Z,71.00
2017-04-28T23:53:56.284Z,70.80
2017-04-28T23:56:24.775Z,70.60
2017-04-28T23:58:54.528Z,70.60
